ADDS METAR Data INFO
IDs: Format: Raw Decoded Include TAF

Data at: 0213 UTC 20 Sep 2017

KBYG 200153Z AUTO 18004KT 10SM CLR 06/03 A2978 RMK AO2 SLP068 T00610028
KBYG 200053Z AUTO 24005KT 10SM CLR 07/03 A2978 RMK AO2 SLP063 T00670028
KBYG 200016Z AUTO 32003KT 10SM SCT021 07/03 A2977 RMK AO2 T00720028
KBYG 200008Z AUTO 33005KT 10SM BKN021 07/02 A2977 RMK AO2 T00720022
KBYG 200000Z AUTO 33007KT 10SM SCT021 08/02 A2976 RMK AO2 T00780022
KBYG 192353Z AUTO 34008KT 10SM BKN020 09/03 A2976 RMK AO2 SLP054 60005 T00890028 10089 20050 50007
KBYG 192348Z AUTO 34008KT 10SM BKN020 09/03 A2976 RMK AO2
KBYG 192253Z AUTO 35005KT 10SM SCT015 08/03 A2974 RMK AO2 SLP049 T00780033
KBYG 192244Z AUTO 33010KT 10SM BKN015 08/04 A2974 RMK AO2 T00830039
KBYG 192153Z AUTO 33011KT 10SM BKN010 BKN032 OVC070 07/04 A2973 RMK AO2 RAE49 SLP048 P0004 T00670039
KBYG 192053Z AUTO 34016G25KT 10SM -RA OVC025 05/02 A2972 RMK AO2 PK WND 35026/2030 RAE07B23 SLP042 P0000 60001 T00500022 51012
KBYG 192044Z AUTO 35019G25KT 10SM -RA FEW008 OVC023 05/03 A2971 RMK AO2 PK WND 35026/2030 RAE07B23 P0000 T00500028
KBYG 192027Z AUTO 35018G24KT 10SM -RA FEW010 SCT018 OVC023 06/03 A2970 RMK AO2 RAE07B23 P0000 T00610028
KBYG 191953Z AUTO 35013G21KT 10SM -RA OVC012 06/03 A2971 RMK AO2 RAB36 SLP034 P0000 T00610033
KBYG 191950Z AUTO 34014G21KT 10SM -RA OVC012 06/03 A2971 RMK AO2 RAB36 P0000
KBYG 191853Z AUTO 01006KT 10SM BKN008 OVC013 07/04 A2968 RMK AO2 RAE24 CIG 007V011 SLP021 P0001 T00720044
KBYG 191834Z AUTO 35010KT 10SM BKN009 OVC016 07/04 A2969 RMK AO2 RAE24 P0001 T00720044
KBYG 191818Z AUTO 34009KT 10SM -RA SCT007 BKN016 OVC060 07/05 A2969 RMK AO2 P0000 T00670050
KBYG 191808Z AUTO 02012G15KT 9SM -RA SCT007 BKN043 OVC060 07/04 A2965 RMK AO2 PRESFR P0000 T00670044
KBYG 191753Z AUTO 35013G19KT 8SM -RA BKN007 OVC044 07/04 A2968 RMK AO2 RAE08B19 SLP022 P0001 60002 T00670044 10122 20067 51012
KBYG 191737Z AUTO 34013G21KT 10SM -RA BKN006 OVC034 07/04 A2967 RMK AO2 RAE08B19 CIG 005V009 P0000 T00670044
KBYG 191710Z AUTO 34016KT 10SM SCT004 BKN036 OVC043 07/04 A2966 RMK AO2 RAE08 P0000 T00670044
KBYG 191653Z AUTO 34018G24KT 6SM -RA BR BKN004 BKN035 OVC043 07/05 A2965 RMK AO2 PK WND 36026/1638 RAB36 CIG 002V011 SLP012 P0001 T00670050
KBYG 191627Z AUTO 33019G23KT 10SM FEW008 OVC038 08/04 A2966 RMK AO2 T00780039
KBYG 191553Z AUTO 34015G23KT 10SM BKN036 09/05 A2964 RMK AO2 SLP001 T00940050
KBYG 191453Z AUTO 32016G22KT 10SM FEW050 OVC080 09/04 A2965 RMK AO2 SLP004 60000 T00940039 53011
KBYG 191353Z AUTO 32013G22KT 10SM OVC075 10/06 A2964 RMK AO2 SLP995 T01000056
KBYG 191253Z AUTO 16006KT 10SM FEW070 FEW095 BKN120 12/05 A2958 RMK AO2 RAB33E45 SLP971 P0000 T01170050
KBYG 191153Z AUTO 17010KT 10SM BKN075 OVC090 11/05 A2961 RMK AO2 RAB09E22B39E50 SLP978 P0000 60000 T01110050 10183 20111 56010
KBYG 191053Z AUTO 16006KT 10SM OVC100 11/05 A2962 RMK AO2 SLP982 T01110050
KBYG 190953Z AUTO 07003KT 10SM BKN110 12/04 A2962 RMK AO2 SLP977 T01220039
KBYG 190853Z AUTO 35009KT 10SM FEW120 14/03 A2965 RMK AO2 SLP984 T01390033 51003
KBYG 190753Z AUTO 01010KT 10SM CLR 14/03 A2965 RMK AO2 SLP988 T01440028
KBYG 190653Z AUTO 35011KT 10SM SCT120 15/02 A2965 RMK AO2 SLP990 T01500017 402560050
KBYG 190553Z AUTO 00000KT 10SM CLR 15/01 A2964 RMK AO2 SLP986 T01500006 10228 20139 56019
KBYG 190453Z AUTO 17009KT 10SM FEW120 15/01 A2965 RMK AO2 SLP990 T01500011
KBYG 190353Z AUTO 19008KT 10SM CLR 17/00 A2967 RMK AO2 SLP998 T01720000
KBYG 190253Z AUTO 18007KT 10SM CLR 17/00 A2970 RMK AO2 SLP012 T01670000 56008
KBYG 190153Z AUTO 18011KT 10SM CLR 19/M01 A2970 RMK AO2 SLP012 T01941011
KBYG 190053Z AUTO 15013KT 10SM CLR 21/M02 A2972 RMK AO2 SLP029 T02061017
KBYG 182353Z AUTO 19012G21KT 10SM CLR 23/M03 A2973 RMK AO2 SLP024 T02281028 10256 20189 56019
KBYG 182253Z AUTO 09006KT 10SM FEW110 23/M01 A2974 RMK AO2 SLP031 T02281011
KBYG 182153Z AUTO 20013KT 10SM CLR 24/M04 A2978 RMK AO2 SLP040 T02441044
KBYG 182053Z AUTO 14011G17KT 10SM CLR 24/M04 A2979 RMK AO2 SLP046 T02441044 56025
KBYG 181953Z AUTO 25006KT 10SM CLR 21/M01 A2981 RMK AO2 SLP057 T02061011
KBYG 181853Z AUTO 12009KT 10SM CLR 19/01 A2984 RMK AO2 SLP070 T01940006
KBYG 181753Z AUTO 14007KT 10SM CLR 19/M01 A2988 RMK AO2 SLP083 T01891011 10206 20050 56011
KBYG 181653Z AUTO 16007KT 10SM CLR 20/00 A2988 RMK AO2 SLP081 T02000000
KBYG 181553Z AUTO 13006KT 10SM CLR 17/00 A2990 RMK AO2 SLP088 T01720000
KBYG 181453Z AUTO 15003KT 10SM CLR 15/M02 A2991 RMK AO2 SLP102 T01501017 56006